Time;durP1;ratioP1;P1;durP2;ratioP2;P2;SDS_P1;SDS_P2;PMS_P1;PMS_P2;Temp;Humidity;BMP_temperature;BMP_pressure;BME280_temperature;BME280_humidity;BME280_pressure;Samples;Min_cycle;Max_cycle;Signal;HPM_P1;HPM_P2
2021/07/29 00:02:32;;;;;;;3.78;1.40;;;;;;;15.74;69.26;100401.13;5066333;28;20032;-77
2021/07/29 00:05:18;;;;;;;5.72;1.77;;;;;;;15.67;69.13;100406.38;5054994;28;20113;-77
2021/07/29 00:08:04;;;;;;;7.75;1.92;;;;;;;15.63;69.77;100405.41;5049792;28;20044;-77
2021/07/29 00:10:50;;;;;;;4.05;1.80;;;;;;;15.59;69.49;100413.59;5062947;28;20036;-77
2021/07/29 00:13:38;;;;;;;3.22;1.60;;;;;;;15.54;69.39;100408.16;5054146;28;20115;-77
2021/07/29 00:16:26;;;;;;;4.40;1.77;;;;;;;15.53;69.67;100412.13;5056991;28;20024;-77
2021/07/29 00:19:12;;;;;;;4.15;1.60;;;;;;;15.48;69.65;100414.28;5064503;28;20029;-77
2021/07/29 00:21:58;;;;;;;4.15;1.92;;;;;;;15.45;69.57;100418.56;5060447;28;20029;-77
2021/07/29 00:24:44;;;;;;;4.05;1.50;;;;;;;15.41;69.80;100421.19;5058104;28;20059;-77
2021/07/29 00:27:34;;;;;;;4.45;1.80;;;;;;;15.37;69.98;100416.56;5048823;28;20473;-77
2021/07/29 00:30:21;;;;;;;3.42;1.70;;;;;;;15.32;69.93;100425.97;5041559;28;20036;-78
2021/07/29 00:33:07;;;;;;;5.03;1.60;;;;;;;15.31;69.83;100421.50;5058045;28;20040;-77
2021/07/29 00:35:53;;;;;;;6.45;1.95;;;;;;;15.26;69.92;100418.06;5046304;28;20473;-77
2021/07/29 00:38:38;;;;;;;2.95;1.88;;;;;;;15.25;70.07;100422.00;5078333;28;20074;-77
2021/07/29 00:41:24;;;;;;;4.45;1.60;;;;;;;15.19;70.67;100418.56;5051641;28;20035;-77
2021/07/29 00:44:10;;;;;;;3.78;1.70;;;;;;;15.18;70.61;100412.13;5063382;28;20068;-76
2021/07/29 00:46:56;;;;;;;3.95;1.92;;;;;;;15.13;70.45;100415.09;5065748;28;20488;-77
2021/07/29 00:49:43;;;;;;;4.53;1.70;;;;;;;15.12;70.76;100409.81;5048075;28;20029;-77
2021/07/29 00:52:28;;;;;;;4.22;1.90;;;;;;;15.11;71.21;100417.38;5081610;28;20052;-77
2021/07/29 00:55:17;;;;;;;9.70;2.00;;;;;;;15.11;71.22;100411.78;5084608;27;20066;-77
2021/07/29 00:58:03;;;;;;;4.72;2.03;;;;;;;15.10;70.97;100412.09;5053971;28;20063;-77
2021/07/29 01:00:49;;;;;;;3.25;1.50;;;;;;;15.06;70.83;100416.72;5085191;28;20038;-77
2021/07/29 01:03:34;;;;;;;3.25;1.77;;;;;;;15.05;70.91;100415.91;5096839;27;20091;-77
2021/07/29 01:06:21;;;;;;;2.58;1.50;;;;;;;15.08;70.74;100411.63;5081549;28;20114;-78
2021/07/29 01:09:10;;;;;;;4.10;1.80;;;;;;;15.06;70.90;100408.31;5064790;28;20044;-77
2021/07/29 01:11:55;;;;;;;3.35;1.63;;;;;;;15.01;71.04;100412.09;5077653;28;20032;-78
2021/07/29 01:14:41;;;;;;;5.57;1.90;;;;;;;14.98;70.94;100412.75;5076793;28;20046;-77
2021/07/29 01:17:30;;;;;;;3.92;1.98;;;;;;;14.95;71.10;100410.59;5059694;28;20027;-77
2021/07/29 01:20:21;;;;;;;4.55;2.10;;;;;;;14.92;71.37;100408.47;5075709;28;20491;-77
2021/07/29 01:23:07;;;;;;;3.83;2.08;;;;;;;14.88;71.08;100407.47;5081121;28;20510;-77
2021/07/29 01:25:53;;;;;;;2.85;1.73;;;;;;;14.84;71.19;100407.28;5071287;28;20039;-77
2021/07/29 01:28:39;;;;;;;4.63;2.00;;;;;;;14.81;71.17;100407.94;5093705;28;20106;-77
2021/07/29 01:31:26;;;;;;;4.10;1.90;;;;;;;14.79;71.69;100415.81;5083168;28;20046;-77
2021/07/29 01:34:12;;;;;;;4.35;2.13;;;;;;;14.74;71.67;100413.19;5072497;28;20106;-77
2021/07/29 01:36:58;;;;;;;3.53;1.80;;;;;;;14.72;71.76;100409.91;5093311;28;20494;-77
2021/07/29 01:39:44;;;;;;;5.13;2.00;;;;;;;14.68;71.53;100404.13;5081272;28;20038;-77
2021/07/29 01:42:30;;;;;;;2.78;1.75;;;;;;;14.66;71.65;100406.44;5079411;28;20024;-76
2021/07/29 01:45:16;;;;;;;4.10;1.77;;;;;;;14.67;71.74;100410.03;5097013;28;20119;-77
2021/07/29 01:48:01;;;;;;;5.90;2.10;;;;;;;14.61;71.96;100411.34;5100149;28;20028;-76
2021/07/29 01:50:47;;;;;;;5.25;2.10;;;;;;;14.56;71.76;100405.91;5091121;28;20036;-77
2021/07/29 01:53:33;;;;;;;4.95;2.00;;;;;;;14.55;71.88;100410.66;5050275;28;20448;-77
2021/07/29 01:56:20;;;;;;;4.40;2.00;;;;;;;14.50;71.63;100408.78;5057413;28;20044;-77
2021/07/29 01:59:06;;;;;;;5.22;2.35;;;;;;;14.51;71.62;100406.81;5074282;28;20532;-77
2021/07/29 02:01:52;;;;;;;5.65;2.10;;;;;;;14.43;71.84;100402.88;5061321;28;20063;-77
2021/07/29 02:04:38;;;;;;;4.50;1.90;;;;;;;14.46;71.78;100405.00;5037066;28;20036;-77
2021/07/29 02:07:24;;;;;;;4.65;2.00;;;;;;;14.39;72.15;100413.03;5072380;28;20047;-77
2021/07/29 02:10:10;;;;;;;4.18;2.20;;;;;;;14.37;72.04;100408.91;5066624;28;20040;-76
2021/07/29 02:12:58;;;;;;;4.15;1.73;;;;;;;14.32;71.84;100404.31;5067169;28;20071;-77
2021/07/29 02:15:43;;;;;;;5.82;2.08;;;;;;;14.28;72.22;100406.91;5066290;28;20075;-76
2021/07/29 02:18:29;;;;;;;3.80;2.10;;;;;;;14.25;72.29;100409.50;5086971;28;20527;-76
2021/07/29 02:21:15;;;;;;;4.07;1.90;;;;;;;14.21;72.38;100400.16;5069936;28;20039;-77
2021/07/29 02:24:01;;;;;;;5.00;2.20;;;;;;;14.18;72.15;100411.94;5076187;28;20058;-77
2021/07/29 02:26:46;;;;;;;4.25;1.90;;;;;;;14.14;72.30;100402.56;5042765;28;20036;-77
2021/07/29 02:29:32;;;;;;;4.40;2.00;;;;;;;14.08;72.60;100413.88;5059630;28;20447;-77
2021/07/29 02:32:18;;;;;;;5.28;1.98;;;;;;;14.07;72.60;100406.63;5053861;28;20112;-77
2021/07/29 02:35:04;;;;;;;5.88;2.30;;;;;;;14.02;72.69;100401.19;5078459;28;20049;-76
2021/07/29 02:37:50;;;;;;;4.90;2.22;;;;;;;13.98;72.72;100407.72;5060331;28;20032;-77
2021/07/29 02:40:36;;;;;;;3.17;1.80;;;;;;;13.95;72.74;100399.97;5067442;28;20037;-77
2021/07/29 02:43:22;;;;;;;6.43;2.10;;;;;;;13.96;72.80;100399.69;5035286;28;20115;-77
2021/07/29 02:46:08;;;;;;;4.57;1.88;;;;;;;13.91;72.64;100407.38;5063390;28;20044;-77
2021/07/29 02:48:53;;;;;;;2.90;2.13;;;;;;;13.89;72.97;100399.28;5077818;28;20040;-76
2021/07/29 02:51:39;;;;;;;4.03;2.00;;;;;;;13.88;72.71;100408.00;5061744;28;20036;-77
2021/07/29 02:54:25;;;;;;;4.07;1.98;;;;;;;13.82;73.06;100399.75;5083049;28;20067;-77
2021/07/29 02:57:11;;;;;;;5.32;1.85;;;;;;;13.82;73.06;100396.16;5093432;28;20507;-77
2021/07/29 02:59:56;;;;;;;7.82;2.30;;;;;;;13.81;73.02;100406.47;5075277;28;20623;-77
2021/07/29 03:02:42;;;;;;;7.80;2.30;;;;;;;13.73;72.92;100401.66;5067842;28;20039;-77
2021/07/29 03:05:28;;;;;;;3.47;2.28;;;;;;;13.73;73.03;100403.63;5079709;28;20099;-77
2021/07/29 03:08:14;;;;;;;6.00;2.25;;;;;;;13.76;73.04;100409.41;5077695;28;20373;-77
2021/07/29 03:11:00;;;;;;;5.20;2.00;;;;;;;13.70;73.17;100401.47;5083013;28;20460;-77
2021/07/29 03:13:46;;;;;;;5.07;1.98;;;;;;;13.70;73.46;100395.88;5078908;28;20611;-77
2021/07/29 03:16:32;;;;;;;3.55;1.77;;;;;;;13.67;73.49;100408.50;5084463;28;20036;-77
2021/07/29 03:19:17;;;;;;;4.70;2.20;;;;;;;13.68;73.58;100403.75;5070086;28;20045;-77
2021/07/29 03:22:03;;;;;;;4.60;2.10;;;;;;;13.64;73.40;100411.94;5064993;28;20077;-77
2021/07/29 03:24:49;;;;;;;6.50;1.70;;;;;;;13.62;73.83;100401.09;5076236;28;20032;-77
2021/07/29 03:27:35;;;;;;;6.40;2.35;;;;;;;13.57;73.54;100397.63;5066033;28;20032;-77
2021/07/29 03:30:21;;;;;;;4.85;2.10;;;;;;;13.59;73.35;100401.72;5057346;28;20032;-77
2021/07/29 03:33:09;;;;;;;4.22;2.10;;;;;;;13.56;73.48;100396.75;5069230;28;20586;-77
2021/07/29 03:35:55;;;;;;;3.60;2.00;;;;;;;13.52;73.24;100390.19;5093129;28;20077;-77
2021/07/29 03:38:41;;;;;;;5.65;2.00;;;;;;;13.52;73.62;100390.19;5060057;28;20035;-76
2021/07/29 03:41:27;;;;;;;4.00;2.00;;;;;;;13.50;73.62;100397.22;5088066;28;20032;-77
2021/07/29 03:44:12;;;;;;;5.63;2.15;;;;;;;13.47;73.63;100395.06;5083694;28;20039;-77
2021/07/29 03:46:58;;;;;;;7.00;2.20;;;;;;;13.45;73.57;100395.38;5065729;28;20039;-77
2021/07/29 03:49:44;;;;;;;4.53;2.08;;;;;;;13.44;73.72;100395.69;5066590;28;20122;-77
2021/07/29 03:52:30;;;;;;;4.72;2.15;;;;;;;13.39;73.75;100394.66;5074377;27;20045;-78
2021/07/29 03:55:16;;;;;;;4.40;2.30;;;;;;;13.37;73.79;100394.19;5076113;28;20028;-77
2021/07/29 03:58:02;;;;;;;5.10;2.10;;;;;;;13.37;74.00;100404.50;5083154;28;20023;-77
2021/07/29 04:00:47;;;;;;;8.25;2.00;;;;;;;13.34;74.17;100403.16;5071805;28;20062;-77
2021/07/29 04:03:33;;;;;;;4.70;2.40;;;;;;;13.36;73.88;100402.84;5101786;28;20054;-77
2021/07/29 04:06:19;;;;;;;3.63;1.98;;;;;;;13.29;73.93;100397.72;5055403;28;20031;-77
2021/07/29 04:09:05;;;;;;;6.90;2.00;;;;;;;13.26;74.21;100403.09;5065582;28;20088;-77
2021/07/29 04:11:51;;;;;;;5.78;2.20;;;;;;;13.21;74.19;100400.41;5082649;28;20037;-78
2021/07/29 04:14:36;;;;;;;5.10;2.08;;;;;;;13.22;74.35;100396.47;5069204;28;20100;-77
2021/07/29 04:17:22;;;;;;;4.32;2.10;;;;;;;13.22;74.30;100396.47;5082509;27;20651;-77
2021/07/29 04:20:08;;;;;;;4.75;2.20;;;;;;;13.15;74.30;100408.06;5081254;28;20123;-78
2021/07/29 04:22:54;;;;;;;4.35;2.22;;;;;;;13.17;74.53;100409.38;5060192;28;20561;-78
2021/07/29 04:25:40;;;;;;;4.15;2.20;;;;;;;13.13;74.47;100400.00;5072136;28;20077;-78
2021/07/29 04:28:26;;;;;;;3.22;2.13;;;;;;;13.15;74.07;100408.88;5066940;28;20064;-78
2021/07/29 04:31:12;;;;;;;6.15;2.20;;;;;;;13.11;74.50;100407.84;5075004;28;20044;-77
2021/07/29 04:33:57;;;;;;;6.82;2.08;;;;;;;13.10;74.21;100405.38;5074389;27;20100;-77
2021/07/29 04:36:43;;;;;;;3.70;1.85;;;;;;;13.05;74.69;100400.75;5065835;28;20108;-77
2021/07/29 04:39:30;;;;;;;3.78;1.88;;;;;;;13.09;74.32;100404.56;5069784;28;20089;-77
2021/07/29 04:42:15;;;;;;;5.43;2.10;;;;;;;13.03;74.79;100402.19;5071487;28;20046;-77
2021/07/29 04:45:01;;;;;;;3.97;2.28;;;;;;;13.03;74.29;100411.38;5073086;28;20114;-77
2021/07/29 04:47:47;;;;;;;6.13;2.50;;;;;;;13.00;74.54;100403.63;5089904;28;20040;-78
2021/07/29 04:50:33;;;;;;;4.90;1.90;;;;;;;13.01;74.74;100410.03;5069883;28;20097;-77
2021/07/29 04:53:19;;;;;;;3.42;1.98;;;;;;;13.01;74.84;100410.03;5069677;28;20047;-78
2021/07/29 04:56:05;;;;;;;3.70;1.80;;;;;;;12.99;75.03;100403.97;5081554;28;20035;-78
2021/07/29 04:58:50;;;;;;;6.47;2.17;;;;;;;13.00;74.77;100402.81;5080061;28;20071;-77
2021/07/29 05:01:37;;;;;;;7.70;2.42;;;;;;;13.02;75.52;100409.72;5071577;28;20027;-77
2021/07/29 05:04:23;;;;;;;4.10;2.17;;;;;;;13.03;76.15;100400.22;5067328;28;20047;-77
2021/07/29 05:07:12;;;;;;;5.10;2.10;;;;;;;13.08;76.31;100407.66;5062166;28;20046;-77
2021/07/29 05:09:58;;;;;;;4.30;2.05;;;;;;;13.11;75.89;100405.06;5073594;28;20040;-69
2021/07/29 05:12:44;;;;;;;7.40;2.35;;;;;;;13.15;76.15;100406.09;5094165;28;20114;-69
2021/07/29 05:15:29;;;;;;;3.58;2.00;;;;;;;13.23;76.72;100415.66;5082829;28;20111;-68
2021/07/29 05:18:18;;;;;;;4.30;2.30;;;;;;;13.33;76.88;100401.50;5098612;28;20043;-79
2021/07/29 05:21:07;;;;;;;6.25;2.10;;;;;;;13.46;77.29;100408.19;5083179;27;20054;-77
2021/07/29 05:23:53;;;;;;;5.47;2.40;;;;;;;13.56;79.81;100416.28;5070188;28;20059;-76
2021/07/29 05:26:40;;;;;;;4.22;2.25;;;;;;;13.69;78.42;100408.19;5071069;28;20089;-76
2021/07/29 05:29:26;;;;;;;4.70;2.35;;;;;;;13.82;79.16;100407.31;5069549;28;20035;-76
2021/07/29 05:32:12;;;;;;;4.70;2.25;;;;;;;13.97;80.42;100412.47;5071850;28;20036;-76
2021/07/29 05:34:58;;;;;;;3.83;2.20;;;;;;;14.11;79.52;100412.41;5083177;28;20063;-76
2021/07/29 05:37:43;;;;;;;4.68;1.95;;;;;;;14.26;77.02;100414.78;5085940;28;20068;-76
2021/07/29 05:40:29;;;;;;;7.20;2.13;;;;;;;14.42;76.31;100417.16;5079149;28;20039;-77
2021/07/29 05:43:15;;;;;;;4.22;2.00;;;;;;;14.59;75.59;100420.03;5072294;27;20028;-77
2021/07/29 05:46:01;;;;;;;3.67;2.00;;;;;;;14.75;74.74;100426.00;5086446;28;20050;-77
2021/07/29 05:48:47;;;;;;;4.43;2.38;;;;;;;14.91;74.45;100429.19;5073397;28;20400;-77
2021/07/29 05:51:32;;;;;;;5.45;1.88;;;;;;;15.07;73.99;100426.75;5082099;28;20576;-77
2021/07/29 05:54:18;;;;;;;4.00;2.10;;;;;;;15.24;73.74;100421.19;5073111;28;20550;-76
2021/07/29 05:57:04;;;;;;;5.28;2.28;;;;;;;15.40;73.47;100422.31;5076109;28;20081;-76
2021/07/29 05:59:50;;;;;;;2.95;1.80;;;;;;;15.59;72.93;100429.59;5075958;28;20038;-77
2021/07/29 06:02:36;;;;;;;3.97;2.10;;;;;;;15.75;73.60;100430.75;5083972;28;20446;-77
2021/07/29 06:05:21;;;;;;;5.35;1.70;;;;;;;15.94;72.32;100438.00;5112158;28;20044;-78
2021/07/29 06:08:07;;;;;;;5.97;1.80;;;;;;;16.12;71.75;100436.78;5095592;28;20036;-76
2021/07/29 06:10:53;;;;;;;4.18;1.90;;;;;;;16.30;71.42;100435.59;5084420;28;20064;-76
2021/07/29 06:13:39;;;;;;;5.22;2.15;;;;;;;16.47;71.48;100429.09;5085118;28;20633;-76
2021/07/29 06:16:25;;;;;;;5.93;1.80;;;;;;;16.68;71.17;100434.78;5078152;28;20032;-76
2021/07/29 06:19:16;;;;;;;6.43;2.40;;;;;;;16.87;70.80;100436.38;5109620;28;20076;-77
2021/07/29 06:22:03;;;;;;;4.70;1.80;;;;;;;17.07;70.22;100426.34;5074118;28;20070;-67
2021/07/29 06:24:49;;;;;;;9.40;2.50;;;;;;;17.27;70.08;100435.94;5113495;28;20515;-71
2021/07/29 06:27:36;;;;;;;4.10;1.90;;;;;;;17.45;69.77;100429.06;5084861;28;20036;-79
2021/07/29 06:30:22;;;;;;;8.43;2.15;;;;;;;17.63;70.32;100433.38;5086310;27;20032;-79
2021/07/29 06:33:08;;;;;;;8.18;1.85;;;;;;;17.82;70.25;100432.06;5083843;28;20038;-79
2021/07/29 06:35:54;;;;;;;5.30;2.30;;;;;;;18.05;69.57;100432.50;5071922;28;20028;-74
2021/07/29 06:38:40;;;;;;;3.58;1.98;;;;;;;18.24;68.30;100437.59;5093951;28;20133;-75
2021/07/29 06:41:26;;;;;;;7.13;2.08;;;;;;;18.44;68.04;100436.72;5078002;28;20112;-74
2021/07/29 06:44:12;;;;;;;7.40;1.80;;;;;;;18.66;67.37;100431.78;5083448;28;20034;-75
2021/07/29 06:46:58;;;;;;;5.28;1.70;;;;;;;18.80;67.11;100429.47;5095395;28;20089;-75
2021/07/29 06:49:44;;;;;;;8.20;1.70;;;;;;;19.04;66.72;100436.28;5085089;28;20035;-74
2021/07/29 06:52:29;;;;;;;6.95;1.98;;;;;;;19.18;66.68;100439.53;5080023;28;20023;-74
2021/07/29 06:55:15;;;;;;;6.38;2.25;;;;;;;19.39;66.43;100433.78;5053018;28;20174;-74
2021/07/29 06:58:01;;;;;;;6.35;1.60;;;;;;;19.55;66.07;100442.28;5080475;28;20061;-74
2021/07/29 07:00:47;;;;;;;5.45;1.80;;;;;;;19.74;65.51;100434.03;5063971;28;20043;-74
2021/07/29 07:03:34;;;;;;;5.10;1.63;;;;;;;19.93;65.36;100439.00;5077957;28;20036;-74
2021/07/29 07:06:20;;;;;;;3.53;1.63;;;;;;;20.07;65.01;100445.03;5065945;28;20128;-74
2021/07/29 07:09:05;;;;;;;7.05;1.77;;;;;;;20.26;64.60;100441.53;5050884;28;20035;-74
2021/07/29 07:11:51;;;;;;;4.53;2.00;;;;;;;20.40;64.79;100438.28;5046756;28;20032;-74
2021/07/29 07:14:37;;;;;;;5.18;1.70;;;;;;;20.63;64.37;100443.31;5066914;28;20114;-74
2021/07/29 07:17:23;;;;;;;4.68;1.70;;;;;;;20.73;64.24;100446.41;5083128;28;20059;-73
2021/07/29 07:20:09;;;;;;;6.78;2.10;;;;;;;20.90;64.30;100447.22;5061136;28;20146;-73
2021/07/29 07:22:55;;;;;;;8.48;1.75;;;;;;;20.99;63.72;100447.84;5063516;28;20090;-73
2021/07/29 07:25:41;;;;;;;4.30;1.40;;;;;;;21.19;63.38;100446.72;5088131;28;20191;-74
2021/07/29 07:28:26;;;;;;;6.13;1.60;;;;;;;21.38;63.17;100442.34;5087426;28;20033;-74
2021/07/29 07:31:12;;;;;;;6.38;1.70;;;;;;;21.56;62.64;100449.22;5090753;28;20189;-75
2021/07/29 07:34:00;;;;;;;4.75;1.60;;;;;;;21.70;62.66;100448.69;5081723;28;20111;-75
2021/07/29 07:36:46;;;;;;;4.05;1.65;;;;;;;21.88;62.48;100451.88;5082031;28;20035;-74
2021/07/29 07:39:34;;;;;;;4.13;1.50;;;;;;;22.05;61.95;100451.44;5062218;28;20119;-74
2021/07/29 07:42:20;;;;;;;6.40;1.65;;;;;;;22.22;61.35;100450.16;5038681;28;20062;-74
2021/07/29 07:45:06;;;;;;;6.60;1.73;;;;;;;22.34;61.19;100446.34;5053437;28;20059;-74
2021/07/29 07:47:51;;;;;;;5.88;1.60;;;;;;;22.49;61.08;100438.94;5044201;28;20058;-74
2021/07/29 07:50:38;;;;;;;5.07;1.60;;;;;;;22.63;60.46;100442.03;5082081;28;20545;-74
2021/07/29 07:53:26;;;;;;;7.63;1.85;;;;;;;22.73;60.68;100446.22;5076642;28;20515;-74
2021/07/29 07:56:13;;;;;;;6.38;1.52;;;;;;;22.84;60.54;100446.41;5062574;28;20032;-74
2021/07/29 07:58:59;;;;;;;6.20;1.83;;;;;;;22.91;60.07;100438.84;5040614;28;20455;-73
2021/07/29 08:01:45;;;;;;;9.02;1.73;;;;;;;23.01;59.83;100439.44;5042747;28;20095;-74
2021/07/29 08:04:31;;;;;;;6.05;1.50;;;;;;;23.13;59.49;100450.56;5055148;28;20102;-74
2021/07/29 08:07:17;;;;;;;4.22;1.08;;;;;;;23.29;59.43;100445.56;5045009;28;20082;-73
2021/07/29 08:10:03;;;;;;;10.43;1.85;;;;;;;23.34;58.69;100456.53;5047706;28;20512;-74
2021/07/29 08:12:48;;;;;;;6.63;1.67;;;;;;;23.50;58.74;100444.22;5063701;28;20082;-74
2021/07/29 08:15:35;;;;;;;4.45;1.30;;;;;;;23.56;58.41;100451.19;5063625;28;20068;-74
2021/07/29 08:18:21;;;;;;;6.50;1.70;;;;;;;23.76;57.97;100451.88;5051320;28;20094;-74
2021/07/29 08:21:08;;;;;;;4.15;1.25;;;;;;;23.89;57.90;100455.28;5054896;28;20039;-75
2021/07/29 08:23:54;;;;;;;5.88;1.48;;;;;;;24.00;57.32;100451.38;5054128;28;20089;-74
2021/07/29 08:26:40;;;;;;;5.22;1.35;;;;;;;24.15;56.93;100448.69;5053327;28;20036;-75
2021/07/29 08:29:26;;;;;;;3.45;1.00;;;;;;;24.27;56.04;100451.28;5065815;28;20096;-75
2021/07/29 08:32:12;;;;;;;5.07;1.58;;;;;;;24.43;55.26;100446.22;5063618;28;20111;-75
2021/07/29 08:34:57;;;;;;;5.57;1.50;;;;;;;24.56;54.91;100438.22;5073082;28;20062;-75
2021/07/29 08:37:46;;;;;;;2.83;1.00;;;;;;;24.66;54.92;100443.19;5066025;28;20024;-75
2021/07/29 08:40:33;;;;;;;7.80;1.45;;;;;;;24.78;54.72;100444.91;5064188;28;20036;-74
2021/07/29 08:43:19;;;;;;;3.85;1.20;;;;;;;24.87;54.85;100441.72;5064296;28;20028;-74
2021/07/29 08:46:07;;;;;;;4.63;1.40;;;;;;;25.01;54.49;100427.63;5053157;28;20028;-74
2021/07/29 08:48:53;;;;;;;6.47;1.40;;;;;;;25.13;54.20;100430.16;5062266;28;20040;-75
2021/07/29 08:51:40;;;;;;;2.38;1.05;;;;;;;25.25;53.75;100426.22;5077474;28;20072;-74
2021/07/29 08:54:25;;;;;;;5.03;1.23;;;;;;;25.37;53.31;100433.59;5081943;28;20040;-74
2021/07/29 08:57:14;;;;;;;2.85;1.20;;;;;;;25.52;52.85;100423.09;5108497;28;20491;-75
2021/07/29 09:00:01;;;;;;;4.75;1.40;;;;;;;25.63;52.84;100433.34;5118980;27;20118;-75
2021/07/29 09:02:47;;;;;;;5.95;1.23;;;;;;;25.74;51.72;100429.69;5090970;27;20035;-74
2021/07/29 09:05:33;;;;;;;4.28;1.33;;;;;;;25.91;52.08;100431.84;5081864;27;20027;-75
2021/07/29 09:08:18;;;;;;;2.90;0.93;;;;;;;26.03;52.05;100434.31;5089699;27;20031;-75
2021/07/29 09:11:04;;;;;;;4.03;1.02;;;;;;;26.12;51.70;100430.28;5090528;27;20066;-74
2021/07/29 09:14:11;;;;;;;4.20;1.08;;;;;;;26.17;50.11;100427.06;5093239;27;20115;-73
2021/07/29 09:17:03;;;;;;;2.45;1.05;;;;;;;26.24;50.05;100422.19;5095623;27;20063;-73
2021/07/29 09:19:50;;;;;;;2.75;1.00;;;;;;;26.28;50.61;100427.88;5078495;27;20039;-73
2021/07/29 09:22:37;;;;;;;4.57;1.38;;;;;;;26.17;49.13;100421.34;5090653;27;20081;-73
2021/07/29 09:25:24;;;;;;;4.07;1.25;;;;;;;26.12;48.84;100427.44;5090350;27;20066;-73
2021/07/29 09:28:11;;;;;;;1.80;1.00;;;;;;;26.06;48.30;100421.31;5085950;27;20038;-73
2021/07/29 09:30:56;;;;;;;4.78;1.30;;;;;;;26.00;48.36;100415.22;5084589;28;20051;-73
2021/07/29 09:33:56;;;;;;;3.65;1.08;;;;;;;25.95;49.26;100414.78;5105313;27;20118;-73
2021/07/29 09:36:42;;;;;;;4.15;1.30;;;;;;;25.81;49.41;100416.31;5091415;27;20027;-73
2021/07/29 09:39:27;;;;;;;3.47;1.20;;;;;;;25.75;49.74;100419.97;5101719;27;20089;-74
2021/07/29 09:42:21;;;;;;;4.25;1.30;;;;;;;25.73;49.67;100408.16;5109392;27;20047;-73
2021/07/29 09:45:08;;;;;;;3.17;1.20;;;;;;;25.78;51.01;100416.31;5102324;27;20034;-74
2021/07/29 09:47:57;;;;;;;4.25;1.08;;;;;;;25.82;50.35;100408.59;5119799;27;20426;-74
2021/07/29 09:50:43;;;;;;;2.35;1.10;;;;;;;25.85;50.10;100399.28;5094083;27;20077;-74
2021/07/29 09:53:33;;;;;;;3.83;1.17;;;;;;;25.94;49.74;100407.47;5100506;27;20065;-74
2021/07/29 09:56:18;;;;;;;3.85;1.20;;;;;;;26.05;50.55;100411.97;5086500;27;20031;-74
2021/07/29 09:59:04;;;;;;;3.22;1.10;;;;;;;26.22;49.67;100409.59;5085661;28;20046;-74
2021/07/29 10:01:50;;;;;;;1.85;0.90;;;;;;;26.37;48.28;100401.88;5126247;27;20035;-74
2021/07/29 10:04:42;;;;;;;6.43;1.27;;;;;;;26.63;47.69;100406.38;5098444;27;20030;-73
2021/07/29 10:07:29;;;;;;;2.85;1.10;;;;;;;26.89;48.09;100408.84;5101097;27;20035;-73
2021/07/29 10:10:21;;;;;;;3.17;1.20;;;;;;;27.17;46.69;100401.50;5104196;27;20034;-73
2021/07/29 10:13:07;;;;;;;2.63;1.00;;;;;;;27.43;46.03;100405.09;5088260;28;20031;-73
2021/07/29 10:15:52;;;;;;;5.07;1.13;;;;;;;27.57;44.41;100399.34;5097500;27;20023;-73
2021/07/29 10:19:06;;;;;;;3.35;1.10;;;;;;;27.61;44.05;100392.41;5093873;27;20180;-73
2021/07/29 10:21:51;;;;;;;3.90;1.15;;;;;;;27.62;44.45;100396.06;5119568;27;20035;-73
2021/07/29 10:24:53;;;;;;;3.33;1.20;;;;;;;27.42;43.46;100394.94;5102983;27;20031;-72
2021/07/29 10:27:39;;;;;;;3.83;1.10;;;;;;;27.44;44.74;100381.03;5113459;27;20042;-72
2021/07/29 10:30:25;;;;;;;3.40;1.10;;;;;;;27.46;44.77;100387.16;5086442;27;20451;-72
2021/07/29 10:33:18;;;;;;;5.68;1.15;;;;;;;27.38;45.76;100380.66;5117457;27;20035;-72
2021/07/29 10:36:04;;;;;;;2.75;0.93;;;;;;;27.33;44.98;100386.78;5101593;27;20015;-74
2021/07/29 10:38:53;;;;;;;3.05;1.25;;;;;;;27.14;46.78;100376.63;5085616;27;20051;-68
2021/07/29 10:41:40;;;;;;;4.78;1.30;;;;;;;26.96;47.31;100377.47;5104404;27;20036;-68
2021/07/29 10:44:33;;;;;;;3.95;1.13;;;;;;;26.92;47.91;100370.97;5099301;27;20058;-67
2021/07/29 10:47:38;;;;;;;;;;;;;;;26.84;45.93;100377.91;5113155;27;20080;-67
2021/07/29 10:50:25;;;;;;;3.88;1.20;;;;;;;26.90;46.28;100367.72;5119861;27;20413;-67
2021/07/29 10:53:10;;;;;;;2.67;1.33;;;;;;;26.93;48.30;100364.03;5117545;27;20047;-67
2021/07/29 10:55:56;;;;;;;4.68;1.02;;;;;;;27.08;47.94;100367.69;5099364;27;20091;-67
2021/07/29 10:58:45;;;;;;;2.97;1.15;;;;;;;27.18;47.65;100363.22;5099770;27;20091;-68
2021/07/29 11:01:51;;;;;;;2.85;0.90;;;;;;;27.27;48.35;100362.78;5085105;27;20027;-67
2021/07/29 11:04:53;;;;;;;3.50;1.00;;;;;;;27.38;47.31;100369.25;5102540;28;20043;-76
2021/07/29 11:07:42;;;;;;;5.38;1.27;;;;;;;27.45;45.77;100365.59;5115909;27;20023;-73
2021/07/29 11:10:28;;;;;;;1.58;0.90;;;;;;;27.57;44.71;100356.56;5091021;27;20041;-73
2021/07/29 11:13:14;;;;;;;5.05;1.20;;;;;;;27.65;43.47;100360.19;5101923;28;20114;-74
2021/07/29 11:16:00;;;;;;;2.47;0.90;;;;;;;27.66;43.29;100361.81;5098405;28;20488;-74
2021/07/29 11:18:59;;;;;;;3.70;1.00;;;;;;;27.73;43.61;100362.59;5097049;28;20047;-74
2021/07/29 11:21:45;;;;;;;3.15;1.05;;;;;;;27.79;43.39;100357.25;5119097;28;20047;-74
2021/07/29 11:24:31;;;;;;;2.95;0.93;;;;;;;27.80;42.79;100350.34;5087710;28;20039;-74
2021/07/29 11:27:31;;;;;;;3.92;0.90;;;;;;;27.79;43.27;100351.56;5089984;28;20027;-74
2021/07/29 11:30:16;;;;;;;3.83;1.00;;;;;;;27.79;43.79;100355.25;5102656;27;20027;-74
2021/07/29 11:33:02;;;;;;;3.58;0.90;;;;;;;27.83;43.62;100349.50;5096489;28;20040;-74
2021/07/29 11:35:49;;;;;;;5.53;1.15;;;;;;;27.83;42.62;100350.34;5098308;27;20035;-74
2021/07/29 11:38:35;;;;;;;4.03;1.05;;;;;;;27.89;42.43;100352.75;5093361;27;20055;-74
2021/07/29 11:41:21;;;;;;;1.85;0.90;;;;;;;27.91;41.79;100350.28;5103839;28;20039;-74
2021/07/29 11:44:07;;;;;;;3.17;0.90;;;;;;;27.95;42.32;100340.50;5100734;27;20062;-74
2021/07/29 11:46:55;;;;;;;1.75;0.82;;;;;;;27.94;42.41;100343.75;5104684;27;20039;-74
2021/07/29 11:49:48;;;;;;;2.90;0.82;;;;;;;28.03;41.35;100342.06;5091346;28;20487;-74
2021/07/29 11:52:34;;;;;;;2.80;0.88;;;;;;;28.00;42.13;100336.38;5113685;28;20523;-74
2021/07/29 11:55:21;;;;;;;2.58;0.70;;;;;;;28.19;42.65;100330.09;5101658;27;20087;-74
2021/07/29 12:15:40;;;;;;;0.93;0.55;;;;;;;29.31;40.23;100327.03;5116960;27;20071;-75
2021/07/29 12:18:26;;;;;;;2.65;0.80;;;;;;;29.27;41.35;100321.38;5088637;28;20033;-75
2021/07/29 12:21:11;;;;;;;3.50;0.93;;;;;;;29.39;39.79;100320.00;5080715;28;20035;-75
2021/07/29 12:23:57;;;;;;;3.45;0.88;;;;;;;29.46;39.59;100317.06;5103811;27;20373;-75
2021/07/29 12:27:08;;;;;;;3.47;0.80;;;;;;;29.58;39.15;100330.78;5102814;27;20059;-75
2021/07/29 12:29:54;;;;;;;3.78;0.90;;;;;;;29.63;38.86;100320.94;5115849;27;20038;-75
2021/07/29 12:32:40;;;;;;;3.97;0.90;;;;;;;29.66;38.61;100316.41;5102640;27;20027;-75
2021/07/29 12:35:26;;;;;;;2.10;0.90;;;;;;;29.66;39.16;100319.28;5101924;27;20028;-75
2021/07/29 12:38:12;;;;;;;2.70;0.70;;;;;;;29.59;39.59;100318.13;5089536;27;20063;-75
2021/07/29 12:40:58;;;;;;;3.05;0.73;;;;;;;29.53;39.35;100319.00;5103794;27;20641;-75
2021/07/29 12:43:43;;;;;;;3.40;1.00;;;;;;;29.47;40.04;100315.00;5103413;27;20088;-75
2021/07/29 12:46:29;;;;;;;4.50;0.90;;;;;;;29.15;40.65;100319.09;5108014;27;20031;-75
2021/07/29 12:49:16;;;;;;;5.03;1.10;;;;;;;29.17;41.43;100323.13;5092656;27;20042;-75
2021/07/29 12:52:02;;;;;;;4.95;1.00;;;;;;;29.04;41.40;100319.19;5105935;27;20042;-76
2021/07/29 12:55:07;;;;;;;3.25;1.15;;;;;;;29.02;41.29;100315.09;5090019;27;20430;-76
2021/07/29 12:57:54;;;;;;;2.83;0.80;;;;;;;28.99;41.76;100298.81;5098707;27;20042;-76
2021/07/29 13:00:44;;;;;;;2.63;0.90;;;;;;;29.10;42.65;100299.53;5100065;27;20172;-76
2021/07/29 13:03:34;;;;;;;4.00;0.90;;;;;;;29.15;41.80;100301.94;5100174;27;20114;-75
2021/07/29 13:06:20;;;;;;;3.45;0.93;;;;;;;29.37;41.37;100299.63;5101297;27;20118;-75
2021/07/29 13:09:06;;;;;;;3.05;0.70;;;;;;;29.56;40.60;100298.94;5104159;27;20100;-75
2021/07/29 13:11:53;;;;;;;3.28;1.00;;;;;;;29.71;40.53;100305.31;5099943;27;20057;-75
2021/07/29 13:14:39;;;;;;;3.33;1.00;;;;;;;29.80;39.52;100299.84;5102955;27;20073;-75